Airfield :
LOGIN :

Register | Disclaimer

   EN    FR    IT 

 










Legend :    VFR   Marginal VFR   IFR   Intensive IFR   Very Intensive IFR
Visi :
Ceiling :
>= 8 km
>= 3000ft
5 to 8 km
1000 to 3000 ft
1500m to 5 km
500 to 1000 ft
800 to 1500m
200 to 500 ft
< 800m
< 200 ft
Symbols :   Thunderstorms  Fog  Heavy snow  Heavy precipitations  Wind > 20 kt
SIGMETs :     Misc.  Thunderstorms  Icing  Turbulence  Mountain Waves  Volcanic Ashes







- Airport Elevation : 538 ft
- IATA code : TNF
- Download approach charts


LFPN - Toussus Le Noble

CURRENT METAR :
  • 170900Z AUTO 08009KT 050V110 7000 FEW008 04/02 Q1024 NOSIG

EXPIRED METARs :
  • 170830Z AUTO 08005KT 050V110 6000 FEW008 04/02 Q1024 NOSIG
  • 170800Z AUTO 06003KT 030V100 4400 BR NSC 03/02 Q1024 BECMG 9999 NSW BKN012
  • 170730Z AUTO 07003KT 030V100 3900 -RA BR SCT008 SCT130 03/02 Q1023 BECMG 9999 NSW BKN012
  • 170700Z AUTO 08006KT 4700 -RA BR BKN008 03/02 Q1023 TEMPO OVC004 BECMG 6000 NSW
  • 170630Z AUTO 09006KT 050V110 6000 OVC009 04/02 Q1023 TEMPO 3000 BR OVC004

TAF TAF LFPN
Valid from the 17 at 09:00 until the 17 at 18:00 UTC


170800Z 1709/1718 08005KT 3500 BR SCT008
BECMG 1709/1712 9999 SCT012
BECMG 1712/1715 CAVOK
ATIS : +33 1 39 56 54 70
No reported NOTAMs for that airfield.



MET'MAP, your aeronautical weather chart ! - Copyright ORBIFLY December 2007 - Disclaimer

ORBIFLY MET'MAP TEAM :

Programming & Development : Alexandra Zaïnal
Concept & Development : Baudouin d'Aumeries
Co-Development & Prog : Marc-Olivier Méhu
Technical & hardware support : Manuel Goepfert

Contact : metmap@orbifly.com




SOURCES & CREDITS :

   NOAA